sensor_id;sensor_type;location;lat;lon;timestamp;pressure;altitude;pressure_sealevel;temperature;humidity
13080;BME280;6606;49.154;9.280;2022-09-02T00:00:05;99712.53;;;13.75;100.00
13080;BME280;6606;49.154;9.280;2022-09-02T00:02:35;99711.19;;;13.68;100.00
13080;BME280;6606;49.154;9.280;2022-09-02T00:05:02;99708.63;;;13.66;100.00
13080;BME280;6606;49.154;9.280;2022-09-02T00:07:29;99698.91;;;13.65;100.00
13080;BME280;6606;49.154;9.280;2022-09-02T00:09:55;99704.25;;;13.65;100.00
13080;BME280;6606;49.154;9.280;2022-09-02T00:12:24;99699.97;;;13.62;100.00
13080;BME280;6606;49.154;9.280;2022-09-02T00:14:51;99704.56;;;13.60;100.00
13080;BME280;6606;49.154;9.280;2022-09-02T00:17:18;99699.31;;;13.59;100.00
13080;BME280;6606;49.154;9.280;2022-09-02T00:19:46;99705.69;;;13.56;100.00
13080;BME280;6606;49.154;9.280;2022-09-02T00:22:12;99702.63;;;13.62;100.00
13080;BME280;6606;49.154;9.280;2022-09-02T00:24:39;99698.25;;;13.61;100.00
13080;BME280;6606;49.154;9.280;2022-09-02T00:27:06;99695.31;;;13.52;100.00
13080;BME280;6606;49.154;9.280;2022-09-02T00:29:32;99692.19;;;13.45;100.00
13080;BME280;6606;49.154;9.280;2022-09-02T00:31:59;99694.47;;;13.51;100.00
13080;BME280;6606;49.154;9.280;2022-09-02T00:34:26;99690.09;;;13.50;100.00
13080;BME280;6606;49.154;9.280;2022-09-02T00:36:54;99692.56;;;13.53;100.00
13080;BME280;6606;49.154;9.280;2022-09-02T00:39:21;99690.28;;;13.47;100.00
13080;BME280;6606;49.154;9.280;2022-09-02T00:41:48;99688.47;;;13.48;100.00
13080;BME280;6606;49.154;9.280;2022-09-02T00:44:17;99683.16;;;13.48;100.00
13080;BME280;6606;49.154;9.280;2022-09-02T00:46:45;99674.59;;;13.43;100.00
13080;BME280;6606;49.154;9.280;2022-09-02T00:49:14;99675.44;;;13.43;100.00
13080;BME280;6606;49.154;9.280;2022-09-02T00:51:46;99674.09;;;13.36;100.00
13080;BME280;6606;49.154;9.280;2022-09-02T00:54:16;99672.41;;;13.35;100.00
13080;BME280;6606;49.154;9.280;2022-09-02T00:56:45;99664.59;;;13.32;100.00
13080;BME280;6606;49.154;9.280;2022-09-02T00:59:18;99667.47;;;13.29;100.00
13080;BME280;6606;49.154;9.280;2022-09-02T01:01:46;99669.34;;;13.27;100.00
13080;BME280;6606;49.154;9.280;2022-09-02T01:04:13;99674.56;;;13.28;100.00
13080;BME280;6606;49.154;9.280;2022-09-02T01:06:41;99669.41;;;13.25;100.00
13080;BME280;6606;49.154;9.280;2022-09-02T01:09:11;99670.66;;;13.19;100.00
13080;BME280;6606;49.154;9.280;2022-09-02T01:11:44;99669.88;;;13.17;100.00
13080;BME280;6606;49.154;9.280;2022-09-02T01:14:13;99681.56;;;13.15;100.00
13080;BME280;6606;49.154;9.280;2022-09-02T01:16:42;99673.69;;;13.13;100.00
13080;BME280;6606;49.154;9.280;2022-09-02T01:19:23;99672.16;;;13.09;100.00
13080;BME280;6606;49.154;9.280;2022-09-02T01:21:52;99686.50;;;13.07;100.00
13080;BME280;6606;49.154;9.280;2022-09-02T01:24:21;99677.84;;;13.03;100.00
13080;BME280;6606;49.154;9.280;2022-09-02T01:26:51;99683.38;;;13.00;100.00
13080;BME280;6606;49.154;9.280;2022-09-02T01:29:20;99676.69;;;12.93;100.00
13080;BME280;6606;49.154;9.280;2022-09-02T01:31:47;99676.69;;;12.93;100.00
13080;BME280;6606;49.154;9.280;2022-09-02T01:34:14;99677.13;;;12.85;100.00
13080;BME280;6606;49.154;9.280;2022-09-02T01:36:42;99680.66;;;12.86;100.00
13080;BME280;6606;49.154;9.280;2022-09-02T01:39:11;99673.63;;;12.85;100.00
13080;BME280;6606;49.154;9.280;2022-09-02T01:41:38;99668.38;;;12.83;100.00
13080;BME280;6606;49.154;9.280;2022-09-02T01:44:05;99671.34;;;12.79;100.00
13080;BME280;6606;49.154;9.280;2022-09-02T01:46:34;99667.47;;;12.84;100.00
13080;BME280;6606;49.154;9.280;2022-09-02T01:49:01;99666.78;;;12.81;100.00
13080;BME280;6606;49.154;9.280;2022-09-02T01:51:28;99669.03;;;12.72;100.00
13080;BME280;6606;49.154;9.280;2022-09-02T01:53:56;99668.09;;;12.73;100.00
13080;BME280;6606;49.154;9.280;2022-09-02T01:56:25;99664.41;;;12.76;100.00
13080;BME280;6606;49.154;9.280;2022-09-02T01:58:52;99670.75;;;12.73;100.00
13080;BME280;6606;49.154;9.280;2022-09-02T02:01:19;99662.66;;;12.75;100.00
13080;BME280;6606;49.154;9.280;2022-09-02T02:03:46;99663.72;;;12.72;100.00
13080;BME280;6606;49.154;9.280;2022-09-02T02:06:15;99667.59;;;12.67;100.00
13080;BME280;6606;49.154;9.280;2022-09-02T02:08:43;99668.56;;;12.66;100.00
13080;BME280;6606;49.154;9.280;2022-09-02T02:11:10;99673.34;;;12.59;100.00
13080;BME280;6606;49.154;9.280;2022-09-02T02:13:38;99673.34;;;12.59;100.00
13080;BME280;6606;49.154;9.280;2022-09-02T02:16:05;99676.97;;;12.58;100.00
13080;BME280;6606;49.154;9.280;2022-09-02T02:18:32;99675.28;;;12.57;100.00
13080;BME280;6606;49.154;9.280;2022-09-02T02:20:58;99663.88;;;12.55;100.00
13080;BME280;6606;49.154;9.280;2022-09-02T02:23:25;99667.44;;;12.54;100.00
13080;BME280;6606;49.154;9.280;2022-09-02T02:25:52;99662.50;;;12.48;100.00
13080;BME280;6606;49.154;9.280;2022-09-02T02:28:19;99672.34;;;12.46;100.00
13080;BME280;6606;49.154;9.280;2022-09-02T02:30:48;99669.88;;;12.43;100.00
13080;BME280;6606;49.154;9.280;2022-09-02T02:33:14;99674.09;;;12.47;100.00
13080;BME280;6606;49.154;9.280;2022-09-02T02:35:42;99672.72;;;12.40;100.00
13080;BME280;6606;49.154;9.280;2022-09-02T02:38:09;99663.31;;;12.34;100.00
13080;BME280;6606;49.154;9.280;2022-09-02T02:40:35;99673.09;;;12.34;100.00
13080;BME280;6606;49.154;9.280;2022-09-02T02:43:03;99671.34;;;12.32;100.00
13080;BME280;6606;49.154;9.280;2022-09-02T02:45:29;99669.00;;;12.28;100.00
13080;BME280;6606;49.154;9.280;2022-09-02T02:47:58;99672.50;;;12.28;100.00
13080;BME280;6606;49.154;9.280;2022-09-02T02:50:25;99669.84;;;12.28;100.00
13080;BME280;6606;49.154;9.280;2022-09-02T02:52:52;99667.63;;;12.21;100.00
13080;BME280;6606;49.154;9.280;2022-09-02T02:55:23;99665.22;;;12.16;100.00
13080;BME280;6606;49.154;9.280;2022-09-02T02:57:51;99666.06;;;12.17;100.00
13080;BME280;6606;49.154;9.280;2022-09-02T03:00:21;99665.41;;;12.13;100.00
13080;BME280;6606;49.154;9.280;2022-09-02T03:02:48;99657.59;;;12.10;100.00
13080;BME280;6606;49.154;9.280;2022-09-02T03:05:20;99666.59;;;12.07;100.00
13080;BME280;6606;49.154;9.280;2022-09-02T03:07:47;99660.44;;;12.07;100.00
13080;BME280;6606;49.154;9.280;2022-09-02T03:10:15;99657.19;;;12.02;100.00
13080;BME280;6606;49.154;9.280;2022-09-02T03:12:43;99657.19;;;12.02;100.00
13080;BME280;6606;49.154;9.280;2022-09-02T03:15:15;99665.34;;;11.99;100.00
13080;BME280;6606;49.154;9.280;2022-09-02T03:17:43;99665.22;;;12.00;100.00
13080;BME280;6606;49.154;9.280;2022-09-02T03:20:11;99660.75;;;12.01;100.00
13080;BME280;6606;49.154;9.280;2022-09-02T03:22:41;99662.69;;;11.99;100.00
13080;BME280;6606;49.154;9.280;2022-09-02T03:25:11;99659.25;;;11.97;100.00
13080;BME280;6606;49.154;9.280;2022-09-02T03:27:39;99659.41;;;11.94;100.00
13080;BME280;6606;49.154;9.280;2022-09-02T03:30:09;99653.56;;;11.87;100.00
13080;BME280;6606;49.154;9.280;2022-09-02T03:32:37;99658.06;;;11.85;100.00
13080;BME280;6606;49.154;9.280;2022-09-02T03:35:05;99654.56;;;11.84;100.00
13080;BME280;6606;49.154;9.280;2022-09-02T03:37:34;99653.66;;;11.85;100.00
13080;BME280;6606;49.154;9.280;2022-09-02T03:40:03;99659.22;;;11.81;100.00
13080;BME280;6606;49.154;9.280;2022-09-02T03:42:31;99656.63;;;11.79;100.00
13080;BME280;6606;49.154;9.280;2022-09-02T03:44:58;99655.69;;;11.80;100.00
13080;BME280;6606;49.154;9.280;2022-09-02T03:47:25;99655.09;;;11.75;100.00
13080;BME280;6606;49.154;9.280;2022-09-02T03:49:54;99655.84;;;11.77;100.00
13080;BME280;6606;49.154;9.280;2022-09-02T03:52:22;99649.06;;;11.72;100.00
13080;BME280;6606;49.154;9.280;2022-09-02T03:54:50;99647.28;;;11.72;100.00
13080;BME280;6606;49.154;9.280;2022-09-02T03:57:20;99649.00;;;11.73;100.00
13080;BME280;6606;49.154;9.280;2022-09-02T03:59:51;99647.44;;;11.69;100.00
13080;BME280;6606;49.154;9.280;2022-09-02T04:02:18;99655.59;;;11.66;100.00
13080;BME280;6606;49.154;9.280;2022-09-02T04:04:45;99645.94;;;11.65;100.00
13080;BME280;6606;49.154;9.280;2022-09-02T04:07:12;99645.16;;;11.63;100.00
13080;BME280;6606;49.154;9.280;2022-09-02T04:09:38;99647.97;;;11.60;100.00
13080;BME280;6606;49.154;9.280;2022-09-02T04:12:06;99650.44;;;11.63;100.00
13080;BME280;6606;49.154;9.280;2022-09-02T04:14:34;99649.16;;;11.54;100.00
13080;BME280;6606;49.154;9.280;2022-09-02T04:17:02;99654.19;;;11.59;100.00
13080;BME280;6606;49.154;9.280;2022-09-02T04:19:29;99648.91;;;11.59;100.00
13080;BME280;6606;49.154;9.280;2022-09-02T04:21:56;99654.56;;;11.53;100.00
13080;BME280;6606;49.154;9.280;2022-09-02T04:24:23;99657.97;;;11.55;100.00
13080;BME280;6606;49.154;9.280;2022-09-02T04:26:50;99654.66;;;11.51;100.00
13080;BME280;6606;49.154;9.280;2022-09-02T04:29:17;99654.72;;;11.50;100.00
13080;BME280;6606;49.154;9.280;2022-09-02T04:31:45;99655.75;;;11.47;100.00
13080;BME280;6606;49.154;9.280;2022-09-02T04:34:12;99649.75;;;11.43;100.00
13080;BME280;6606;49.154;9.280;2022-09-02T04:36:40;99646.16;;;11.44;100.00
13080;BME280;6606;49.154;9.280;2022-09-02T04:39:08;99648.72;;;11.46;100.00
13080;BME280;6606;49.154;9.280;2022-09-02T04:41:36;99644.28;;;11.47;100.00
13080;BME280;6606;49.154;9.280;2022-09-02T04:44:06;99645.97;;;11.48;100.00
13080;BME280;6606;49.154;9.280;2022-09-02T04:46:37;99645.81;;;11.51;100.00
13080;BME280;6606;49.154;9.280;2022-09-02T04:49:08;99647.59;;;11.50;100.00
13080;BME280;6606;49.154;9.280;2022-09-02T04:51:37;99645.66;;;11.54;100.00
13080;BME280;6606;49.154;9.280;2022-09-02T04:54:06;99642.91;;;11.55;100.00
13080;BME280;6606;49.154;9.280;2022-09-02T04:56:34;99648.91;;;11.59;100.00
13080;BME280;6606;49.154;9.280;2022-09-02T04:59:03;99650.63;;;11.60;100.00
13080;BME280;6606;49.154;9.280;2022-09-02T05:01:32;99653.53;;;11.55;100.00
13080;BME280;6606;49.154;9.280;2022-09-02T05:04:06;99647.38;;;11.55;100.00
13080;BME280;6606;49.154;9.280;2022-09-02T05:06:38;99647.72;;;11.64;100.00
13080;BME280;6606;49.154;9.280;2022-09-02T05:09:06;99655.59;;;11.66;100.00
13080;BME280;6606;49.154;9.280;2022-09-02T05:11:36;99657.31;;;11.67;100.00
13080;BME280;6606;49.154;9.280;2022-09-02T05:14:05;99648.22;;;11.71;100.00
13080;BME280;6606;49.154;9.280;2022-09-02T05:16:36;99644.56;;;11.74;100.00
13080;BME280;6606;49.154;9.280;2022-09-02T05:19:08;99642.56;;;11.77;100.00
13080;BME280;6606;49.154;9.280;2022-09-02T05:21:43;99644.31;;;11.78;100.00
13080;BME280;6606;49.154;9.280;2022-09-02T05:24:16;99646.56;;;11.86;100.00
13080;BME280;6606;49.154;9.280;2022-09-02T05:26:43;99651.53;;;11.92;100.00
13080;BME280;6606;49.154;9.280;2022-09-02T05:29:12;99656.59;;;11.97;100.00
13080;BME280;6606;49.154;9.280;2022-09-02T05:31:40;99662.38;;;12.03;100.00
13080;BME280;6606;49.154;9.280;2022-09-02T05:34:12;99660.34;;;12.08;100.00
13080;BME280;6606;49.154;9.280;2022-09-02T05:36:39;99658.19;;;12.15;100.00
13080;BME280;6606;49.154;9.280;2022-09-02T05:39:07;99655.78;;;12.26;100.00
13080;BME280;6606;49.154;9.280;2022-09-02T05:41:36;99659.88;;;12.32;100.00
13080;BME280;6606;49.154;9.280;2022-09-02T05:44:05;99659.88;;;12.32;100.00
13080;BME280;6606;49.154;9.280;2022-09-02T05:46:33;99663.91;;;12.39;100.00
13080;BME280;6606;49.154;9.280;2022-09-02T05:49:02;99661.72;;;12.46;100.00
13080;BME280;6606;49.154;9.280;2022-09-02T05:51:56;99660.25;;;12.56;100.00
13080;BME280;6606;49.154;9.280;2022-09-02T05:54:33;99658.59;;;12.69;100.00
13080;BME280;6606;49.154;9.280;2022-09-02T05:57:06;99659.44;;;12.70;100.00
13080;BME280;6606;49.154;9.280;2022-09-02T05:59:37;99659.84;;;12.78;100.00
13080;BME280;6606;49.154;9.280;2022-09-02T06:02:07;99652.72;;;12.79;100.00
13080;BME280;6606;49.154;9.280;2022-09-02T06:04:36;99650.81;;;12.81;100.00
13080;BME280;6606;49.154;9.280;2022-09-02T06:07:03;99656.19;;;12.95;100.00
13080;BME280;6606;49.154;9.280;2022-09-02T06:09:31;99658.38;;;13.03;100.00
13080;BME280;6606;49.154;9.280;2022-09-02T06:11:58;99662.78;;;13.18;100.00
13080;BME280;6606;49.154;9.280;2022-09-02T06:14:28;99654.91;;;13.31;100.00
13080;BME280;6606;49.154;9.280;2022-09-02T06:16:56;99659.97;;;13.50;100.00
13080;BME280;6606;49.154;9.280;2022-09-02T06:19:39;99660.00;;;13.62;100.00
13080;BME280;6606;49.154;9.280;2022-09-02T06:22:06;99648.69;;;13.73;100.00
13080;BME280;6606;49.154;9.280;2022-09-02T06:24:37;99658.53;;;14.00;100.00
13080;BME280;6606;49.154;9.280;2022-09-02T06:27:09;99662.16;;;14.26;100.00
13080;BME280;6606;49.154;9.280;2022-09-02T06:29:38;99647.81;;;14.41;100.00
13080;BME280;6606;49.154;9.280;2022-09-02T06:32:07;99659.00;;;14.61;100.00
13080;BME280;6606;49.154;9.280;2022-09-02T06:34:34;99653.38;;;14.78;100.00
13080;BME280;6606;49.154;9.280;2022-09-02T06:37:02;99647.75;;;14.95;100.00
13080;BME280;6606;49.154;9.280;2022-09-02T06:39:30;99650.84;;;15.15;100.00
13080;BME280;6606;49.154;9.280;2022-09-02T06:41:59;99653.19;;;15.32;100.00
13080;BME280;6606;49.154;9.280;2022-09-02T06:44:28;99650.41;;;15.47;100.00
13080;BME280;6606;49.154;9.280;2022-09-02T06:46:56;99647.81;;;15.58;100.00
13080;BME280;6606;49.154;9.280;2022-09-02T06:49:26;99648.97;;;15.79;100.00
13080;BME280;6606;49.154;9.280;2022-09-02T06:51:55;99635.91;;;15.88;100.00
13080;BME280;6606;49.154;9.280;2022-09-02T06:54:28;99650.59;;;16.06;100.00
13080;BME280;6606;49.154;9.280;2022-09-02T06:57:06;99644.75;;;16.25;100.00
13080;BME280;6606;49.154;9.280;2022-09-02T06:59:35;99645.38;;;16.29;100.00
13080;BME280;6606;49.154;9.280;2022-09-02T07:02:01;99643.53;;;16.53;100.00
13080;BME280;6606;49.154;9.280;2022-09-02T07:04:30;99641.91;;;16.75;100.00
13080;BME280;6606;49.154;9.280;2022-09-02T07:07:18;99646.13;;;16.90;100.00
13080;BME280;6606;49.154;9.280;2022-09-02T07:10:01;99649.81;;;17.11;100.00
13080;BME280;6606;49.154;9.280;2022-09-02T07:12:29;99652.53;;;17.23;100.00
13080;BME280;6606;49.154;9.280;2022-09-02T07:15:01;99651.19;;;17.51;100.00
13080;BME280;6606;49.154;9.280;2022-09-02T07:17:33;99648.16;;;18.33;100.00
13080;BME280;6606;49.154;9.280;2022-09-02T07:20:03;99628.97;;;22.03;100.00
13080;BME280;6606;49.154;9.280;2022-09-02T07:22:36;99628.72;;;24.98;92.68
13080;BME280;6606;49.154;9.280;2022-09-02T07:25:04;99626.66;;;25.25;77.00
13080;BME280;6606;49.154;9.280;2022-09-02T07:27:33;99623.34;;;26.02;73.77
13080;BME280;6606;49.154;9.280;2022-09-02T07:30:00;99616.63;;;26.90;61.21
13080;BME280;6606;49.154;9.280;2022-09-02T07:32:30;99609.59;;;28.51;52.95
13080;BME280;6606;49.154;9.280;2022-09-02T07:34:56;99614.72;;;27.73;51.34
13080;BME280;6606;49.154;9.280;2022-09-02T07:37:23;99611.50;;;28.35;50.40
13080;BME280;6606;49.154;9.280;2022-09-02T07:39:51;99606.59;;;28.09;50.28
13080;BME280;6606;49.154;9.280;2022-09-02T07:42:19;99604.00;;;28.59;47.82
13080;BME280;6606;49.154;9.280;2022-09-02T07:44:47;99606.41;;;28.97;46.00
13080;BME280;6606;49.154;9.280;2022-09-02T07:47:14;99596.81;;;27.63;53.04
13080;BME280;6606;49.154;9.280;2022-09-02T07:49:43;99607.66;;;27.93;49.71
13080;BME280;6606;49.154;9.280;2022-09-02T07:52:10;99601.56;;;28.27;46.50
13080;BME280;6606;49.154;9.280;2022-09-02T07:54:37;99603.56;;;29.40;45.10
13080;BME280;6606;49.154;9.280;2022-09-02T07:57:04;99594.94;;;29.64;42.94
13080;BME280;6606;49.154;9.280;2022-09-02T07:59:33;99604.28;;;27.91;48.67
13080;BME280;6606;49.154;9.280;2022-09-02T08:02:02;99600.84;;;27.38;51.39
13080;BME280;6606;49.154;9.280;2022-09-02T08:04:30;99599.81;;;27.24;49.80
13080;BME280;6606;49.154;9.280;2022-09-02T08:07:02;99594.94;;;29.71;42.67
13080;BME280;6606;49.154;9.280;2022-09-02T08:09:45;99593.69;;;29.67;42.38
13080;BME280;6606;49.154;9.280;2022-09-02T08:12:12;99592.72;;;29.53;42.31
13080;BME280;6606;49.154;9.280;2022-09-02T08:14:39;99598.41;;;29.58;43.75
13080;BME280;6606;49.154;9.280;2022-09-02T08:17:07;99600.19;;;27.36;49.07
13080;BME280;6606;49.154;9.280;2022-09-02T08:19:34;99594.28;;;24.33;67.33
13080;BME280;6606;49.154;9.280;2022-09-02T08:22:02;99585.63;;;23.63;73.24
13080;BME280;6606;49.154;9.280;2022-09-02T08:24:33;99592.41;;;22.80;81.60
13080;BME280;6606;49.154;9.280;2022-09-02T08:27:00;99595.41;;;22.77;85.51
13080;BME280;6606;49.154;9.280;2022-09-02T08:29:27;99601.78;;;22.50;86.43
13080;BME280;6606;49.154;9.280;2022-09-02T08:31:53;99591.97;;;22.67;85.58
13080;BME280;6606;49.154;9.280;2022-09-02T08:34:22;99588.28;;;22.68;83.00
13080;BME280;6606;49.154;9.280;2022-09-02T08:36:49;99593.38;;;22.53;83.69
13080;BME280;6606;49.154;9.280;2022-09-02T08:39:15;99587.13;;;22.53;82.93
13080;BME280;6606;49.154;9.280;2022-09-02T08:41:48;99590.53;;;22.19;83.06
13080;BME280;6606;49.154;9.280;2022-09-02T08:44:20;99580.84;;;22.16;78.37
13080;BME280;6606;49.154;9.280;2022-09-02T08:46:49;99581.09;;;22.59;79.72
13080;BME280;6606;49.154;9.280;2022-09-02T08:49:23;99571.84;;;22.44;77.74
13080;BME280;6606;49.154;9.280;2022-09-02T08:51:52;99578.19;;;22.34;77.34
13080;BME280;6606;49.154;9.280;2022-09-02T08:54:26;99577.53;;;22.05;74.73
13080;BME280;6606;49.154;9.280;2022-09-02T08:56:56;99575.09;;;22.29;74.59
13080;BME280;6606;49.154;9.280;2022-09-02T08:59:25;99579.72;;;22.55;72.88
13080;BME280;6606;49.154;9.280;2022-09-02T09:02:00;99583.28;;;22.37;73.65
13080;BME280;6606;49.154;9.280;2022-09-02T09:04:47;99582.19;;;22.30;74.83
13080;BME280;6606;49.154;9.280;2022-09-02T09:07:26;99577.47;;;22.50;73.00
13080;BME280;6606;49.154;9.280;2022-09-02T09:10:04;99578.47;;;22.13;73.37
13080;BME280;6606;49.154;9.280;2022-09-02T09:12:45;99574.25;;;22.47;72.86
13080;BME280;6606;49.154;9.280;2022-09-02T09:15:21;99571.34;;;22.66;69.24
13080;BME280;6606;49.154;9.280;2022-09-02T09:17:56;99565.13;;;22.66;67.61
13080;BME280;6606;49.154;9.280;2022-09-02T09:20:27;99564.06;;;22.85;72.80
13080;BME280;6606;49.154;9.280;2022-09-02T09:22:57;99559.72;;;22.66;67.59
13080;BME280;6606;49.154;9.280;2022-09-02T09:25:26;99566.91;;;22.83;67.88
13080;BME280;6606;49.154;9.280;2022-09-02T09:27:54;99552.09;;;23.13;66.94
13080;BME280;6606;49.154;9.280;2022-09-02T09:30:22;99559.44;;;22.77;63.89
13080;BME280;6606;49.154;9.280;2022-09-02T09:32:51;99554.84;;;22.95;64.27
13080;BME280;6606;49.154;9.280;2022-09-02T09:35:20;99556.41;;;22.98;61.20
13080;BME280;6606;49.154;9.280;2022-09-02T09:37:49;99548.34;;;23.06;61.93
13080;BME280;6606;49.154;9.280;2022-09-02T09:40:28;99540.59;;;23.11;61.36
13080;BME280;6606;49.154;9.280;2022-09-02T09:42:57;99537.44;;;23.24;61.15
13080;BME280;6606;49.154;9.280;2022-09-02T09:45:29;99538.28;;;23.67;58.29
13080;BME280;6606;49.154;9.280;2022-09-02T09:48:17;99537.19;;;23.94;58.04
13080;BME280;6606;49.154;9.280;2022-09-02T09:50:49;99538.38;;;24.00;53.22
13080;BME280;6606;49.154;9.280;2022-09-02T09:53:37;99536.84;;;24.05;49.82
13080;BME280;6606;49.154;9.280;2022-09-02T09:56:05;99531.97;;;24.17;47.73
13080;BME280;6606;49.154;9.280;2022-09-02T09:58:34;99535.81;;;23.82;47.17
13080;BME280;6606;49.154;9.280;2022-09-02T10:01:10;99520.94;;;23.86;46.06
13080;BME280;6606;49.154;9.280;2022-09-02T10:03:41;99534.13;;;23.97;42.41
13080;BME280;6606;49.154;9.280;2022-09-02T10:06:17;99530.44;;;24.23;42.00
13080;BME280;6606;49.154;9.280;2022-09-02T10:08:52;99531.06;;;23.84;43.01
13080;BME280;6606;49.154;9.280;2022-09-02T10:11:22;99528.09;;;24.20;44.56
13080;BME280;6606;49.154;9.280;2022-09-02T10:13:49;99527.06;;;24.12;42.66
13080;BME280;6606;49.154;9.280;2022-09-02T10:16:29;99522.84;;;24.34;41.72
13080;BME280;6606;49.154;9.280;2022-09-02T10:19:04;99518.25;;;24.10;39.83
13080;BME280;6606;49.154;9.280;2022-09-02T10:21:50;99523.31;;;24.05;38.21
13080;BME280;6606;49.154;9.280;2022-09-02T10:24:39;99518.44;;;24.17;39.42
13080;BME280;6606;49.154;9.280;2022-09-02T10:27:14;99518.94;;;24.04;39.60
13080;BME280;6606;49.154;9.280;2022-09-02T10:29:53;99517.09;;;24.29;38.91
13080;BME280;6606;49.154;9.280;2022-09-02T10:32:47;99515.22;;;24.54;37.93
13080;BME280;6606;49.154;9.280;2022-09-02T10:35:24;99506.41;;;24.52;35.75
13080;BME280;6606;49.154;9.280;2022-09-02T10:38:03;99508.13;;;24.53;36.29
13080;BME280;6606;49.154;9.280;2022-09-02T10:40:38;99504.19;;;24.72;36.61
13080;BME280;6606;49.154;9.280;2022-09-02T10:43:20;99503.84;;;24.75;35.40
13080;BME280;6606;49.154;9.280;2022-09-02T10:45:54;99501.97;;;24.76;36.08
13080;BME280;6606;49.154;9.280;2022-09-02T10:48:42;99495.22;;;24.80;36.29
13080;BME280;6606;49.154;9.280;2022-09-02T10:51:15;99495.00;;;24.82;36.78
13080;BME280;6606;49.154;9.280;2022-09-02T10:54:02;99490.59;;;24.89;37.59
13080;BME280;6606;49.154;9.280;2022-09-02T10:56:39;99490.47;;;25.30;37.56
13080;BME280;6606;49.154;9.280;2022-09-02T10:59:11;99474.13;;;25.46;36.29
13080;BME280;6606;49.154;9.280;2022-09-02T11:01:43;99474.28;;;25.44;35.50
13080;BME280;6606;49.154;9.280;2022-09-02T11:04:16;99470.69;;;25.21;34.61
13080;BME280;6606;49.154;9.280;2022-09-02T11:06:46;99468.00;;;25.05;35.11
13080;BME280;6606;49.154;9.280;2022-09-02T11:09:24;99463.97;;;25.40;35.66
13080;BME280;6606;49.154;9.280;2022-09-02T11:11:56;99459.78;;;25.29;36.54
13080;BME280;6606;49.154;9.280;2022-09-02T11:14:26;99449.66;;;25.23;34.04
13080;BME280;6606;49.154;9.280;2022-09-02T11:17:01;99456.78;;;25.08;35.96
13080;BME280;6606;49.154;9.280;2022-09-02T11:19:34;99462.06;;;25.17;35.55
13080;BME280;6606;49.154;9.280;2022-09-02T11:22:10;99448.09;;;25.29;35.55
13080;BME280;6606;49.154;9.280;2022-09-02T11:24:43;99441.88;;;25.51;36.64
13080;BME280;6606;49.154;9.280;2022-09-02T11:27:22;99443.28;;;25.39;35.27
13080;BME280;6606;49.154;9.280;2022-09-02T11:29:59;99436.75;;;25.25;35.01
13080;BME280;6606;49.154;9.280;2022-09-02T11:32:31;99437.09;;;24.83;35.40
13080;BME280;6606;49.154;9.280;2022-09-02T11:35:05;99439.00;;;25.44;36.10
13080;BME280;6606;49.154;9.280;2022-09-02T11:37:38;99430.41;;;25.41;34.11
13080;BME280;6606;49.154;9.280;2022-09-02T11:40:09;99427.72;;;25.56;34.23
13080;BME280;6606;49.154;9.280;2022-09-02T11:43:02;99428.72;;;25.63;34.29
13080;BME280;6606;49.154;9.280;2022-09-02T11:45:53;99434.34;;;25.84;34.00
13080;BME280;6606;49.154;9.280;2022-09-02T11:51:30;99422.72;;;25.44;34.45
13080;BME280;6606;49.154;9.280;2022-09-02T11:54:02;99431.19;;;25.18;34.14
13080;BME280;6606;49.154;9.280;2022-09-02T11:56:35;99421.00;;;25.52;33.69
13080;BME280;6606;49.154;9.280;2022-09-02T11:59:06;99405.94;;;25.72;32.81
13080;BME280;6606;49.154;9.280;2022-09-02T12:01:36;99419.78;;;26.00;32.00
13080;BME280;6606;49.154;9.280;2022-09-02T12:04:05;99423.28;;;26.09;31.82
13080;BME280;6606;49.154;9.280;2022-09-02T12:06:32;99421.84;;;25.75;32.47
13080;BME280;6606;49.154;9.280;2022-09-02T12:09:04;99420.97;;;26.21;30.40
13080;BME280;6606;49.154;9.280;2022-09-02T12:11:46;99415.81;;;26.64;30.30
13080;BME280;6606;49.154;9.280;2022-09-02T12:27:07;99408.19;;;26.06;30.55
13080;BME280;6606;49.154;9.280;2022-09-02T12:29:35;99404.13;;;26.25;30.51
13080;BME280;6606;49.154;9.280;2022-09-02T12:32:02;99395.72;;;26.50;30.98
13080;BME280;6606;49.154;9.280;2022-09-02T12:34:54;99398.66;;;26.63;29.49
13080;BME280;6606;49.154;9.280;2022-09-02T12:40:33;99391.50;;;26.92;30.90
13080;BME280;6606;49.154;9.280;2022-09-02T12:43:05;99389.00;;;26.75;30.27
13080;BME280;6606;49.154;9.280;2022-09-02T12:45:42;99381.19;;;27.02;29.73
13080;BME280;6606;49.154;9.280;2022-09-02T12:48:12;99375.97;;;27.22;30.32
13080;BME280;6606;49.154;9.280;2022-09-02T12:50:53;99379.25;;;26.66;29.85
13080;BME280;6606;49.154;9.280;2022-09-02T12:53:27;99377.66;;;26.57;30.69
13080;BME280;6606;49.154;9.280;2022-09-02T12:55:57;99372.94;;;26.36;31.78
13080;BME280;6606;49.154;9.280;2022-09-02T12:58:29;99363.75;;;26.82;30.62
13080;BME280;6606;49.154;9.280;2022-09-02T13:01:05;99357.94;;;26.85;31.09
13080;BME280;6606;49.154;9.280;2022-09-02T13:03:55;99359.81;;;26.69;29.84
13080;BME280;6606;49.154;9.280;2022-09-02T13:06:34;99355.16;;;26.78;29.08
13080;BME280;6606;49.154;9.280;2022-09-02T13:09:49;99348.97;;;26.55;30.97
13080;BME280;6606;49.154;9.280;2022-09-02T13:12:53;99361.09;;;27.03;31.04
13080;BME280;6606;49.154;9.280;2022-09-02T13:15:31;99354.28;;;27.29;30.30
13080;BME280;6606;49.154;9.280;2022-09-02T13:18:19;99350.97;;;27.33;29.32
13080;BME280;6606;49.154;9.280;2022-09-02T13:21:14;99346.88;;;27.44;30.63
13080;BME280;6606;49.154;9.280;2022-09-02T13:24:11;99333.75;;;27.11;30.38
13080;BME280;6606;49.154;9.280;2022-09-02T13:26:53;99333.75;;;27.11;29.98
13080;BME280;6606;49.154;9.280;2022-09-02T13:32:21;99326.44;;;27.27;31.15
13080;BME280;6606;49.154;9.280;2022-09-02T13:34:51;99320.78;;;26.92;30.37
13080;BME280;6606;49.154;9.280;2022-09-02T13:37:26;99318.06;;;26.92;30.68
13080;BME280;6606;49.154;9.280;2022-09-02T13:39:55;99307.25;;;27.35;31.18
13080;BME280;6606;49.154;9.280;2022-09-02T13:42:23;99308.91;;;27.36;30.03
13080;BME280;6606;49.154;9.280;2022-09-02T13:44:50;99311.72;;;27.43;30.16
13080;BME280;6606;49.154;9.280;2022-09-02T13:47:33;99312.03;;;27.33;29.71